sensor_id;sensor_type;location;lat;lon;timestamp;pressure;altitude;pressure_sealevel;temperature;humidity
54308;BME280;40208;39.778;2.710;2023-03-12T00:01:45;101413.72;;;18.09;100.00
54308;BME280;40208;39.778;2.710;2023-03-12T00:04:31;101409.13;;;18.11;100.00
54308;BME280;40208;39.778;2.710;2023-03-12T00:07:17;101409.13;;;18.11;100.00
54308;BME280;40208;39.778;2.710;2023-03-12T00:10:03;101407.19;;;18.13;100.00
54308;BME280;40208;39.778;2.710;2023-03-12T00:12:48;101341.81;;;17.73;100.00
54308;BME280;40208;39.778;2.710;2023-03-12T00:15:37;101429.22;;;18.18;100.00
54308;BME280;40208;39.778;2.710;2023-03-12T00:18:22;101425.56;;;18.19;100.00
54308;BME280;40208;39.778;2.710;2023-03-12T00:21:08;101397.44;;;17.98;100.00
54308;BME280;40208;39.778;2.710;2023-03-12T00:23:53;101291.09;;;17.41;100.00
54308;BME280;40208;39.778;2.710;2023-03-12T00:26:38;101392.84;;;18.00;100.00
54308;BME280;40208;39.778;2.710;2023-03-12T00:29:23;101435.25;;;18.22;100.00
54308;BME280;40208;39.778;2.710;2023-03-12T00:32:08;101437.44;;;18.30;100.00
54308;BME280;40208;39.778;2.710;2023-03-12T00:34:54;101437.88;;;18.36;100.00
54308;BME280;40208;39.778;2.710;2023-03-12T00:37:39;101410.97;;;18.23;100.00
54308;BME280;40208;39.778;2.710;2023-03-12T00:40:24;101437.78;;;18.38;100.00
54308;BME280;40208;39.778;2.710;2023-03-12T00:43:09;101395.91;;;18.21;100.00
54308;BME280;40208;39.778;2.710;2023-03-12T00:45:54;101409.50;;;18.32;100.00
54308;BME280;40208;39.778;2.710;2023-03-12T00:48:40;101386.66;;;18.12;100.00
54308;BME280;40208;39.778;2.710;2023-03-12T00:51:25;101273.78;;;17.59;100.00
54308;BME280;40208;39.778;2.710;2023-03-12T00:54:10;101410.97;;;18.23;100.00
54308;BME280;40208;39.778;2.710;2023-03-12T00:56:56;101403.22;;;18.19;100.00
54308;BME280;40208;39.778;2.710;2023-03-12T00:59:41;101414.06;;;18.17;100.00
54308;BME280;40208;39.778;2.710;2023-03-12T01:02:26;101458.09;;;18.42;100.00
54308;BME280;40208;39.778;2.710;2023-03-12T01:05:12;101450.69;;;18.46;100.00
54308;BME280;40208;39.778;2.710;2023-03-12T01:07:57;101458.03;;;18.56;100.00
54308;BME280;40208;39.778;2.710;2023-03-12T01:10:42;101454.25;;;18.46;100.00
54308;BME280;40208;39.778;2.710;2023-03-12T01:13:27;101453.19;;;18.49;100.00
54308;BME280;40208;39.778;2.710;2023-03-12T01:16:11;101463.06;;;18.48;100.00
54308;BME280;40208;39.778;2.710;2023-03-12T01:18:58;101454.03;;;18.49;100.00
54308;BME280;40208;39.778;2.710;2023-03-12T01:21:43;101428.25;;;18.19;100.00
54308;BME280;40208;39.778;2.710;2023-03-12T01:24:28;101453.91;;;18.38;100.00
54308;BME280;40208;39.778;2.710;2023-03-12T01:27:13;101424.56;;;18.08;100.00
54308;BME280;40208;39.778;2.710;2023-03-12T01:29:58;101431.97;;;18.04;100.00
54308;BME280;40208;39.778;2.710;2023-03-12T01:32:43;101421.44;;;18.01;100.00
54308;BME280;40208;39.778;2.710;2023-03-12T01:35:28;101452.97;;;18.25;100.00
54308;BME280;40208;39.778;2.710;2023-03-12T01:38:14;101423.91;;;18.04;100.00
54308;BME280;40208;39.778;2.710;2023-03-12T01:41:00;101325.50;;;17.49;100.00
54308;BME280;40208;39.778;2.710;2023-03-12T01:43:45;101459.72;;;18.17;100.00
54308;BME280;40208;39.778;2.710;2023-03-12T01:46:35;101454.47;;;18.16;100.00
54308;BME280;40208;39.778;2.710;2023-03-12T01:49:28;101456.09;;;18.18;100.00
54308;BME280;40208;39.778;2.710;2023-03-12T01:52:18;101420.97;;;17.94;100.00
54308;BME280;40208;39.778;2.710;2023-03-12T01:55:10;101326.56;;;17.32;100.00
54308;BME280;40208;39.778;2.710;2023-03-12T01:57:57;101448.09;;;18.04;100.00
54308;BME280;40208;39.778;2.710;2023-03-12T02:00:42;101447.97;;;18.06;100.00
54308;BME280;40208;39.778;2.710;2023-03-12T02:03:30;101455.00;;;18.08;100.00
54308;BME280;40208;39.778;2.710;2023-03-12T02:06:15;101410.94;;;17.84;100.00
54308;BME280;40208;39.778;2.710;2023-03-12T02:09:05;101455.47;;;18.00;100.00
54308;BME280;40208;39.778;2.710;2023-03-12T02:11:51;101295.34;;;17.04;100.00
54308;BME280;40208;39.778;2.710;2023-03-12T02:14:36;101442.84;;;17.88;100.00
54308;BME280;40208;39.778;2.710;2023-03-12T02:17:22;101456.38;;;17.87;100.00
54308;BME280;40208;39.778;2.710;2023-03-12T02:23:07;101451.13;;;17.85;100.00
54308;BME280;40208;39.778;2.710;2023-03-12T02:25:53;101402.75;;;17.44;100.00
54308;BME280;40208;39.778;2.710;2023-03-12T02:28:40;101464.03;;;17.78;100.00
54308;BME280;40208;39.778;2.710;2023-03-12T02:31:39;101411.19;;;17.37;100.00
54308;BME280;40208;39.778;2.710;2023-03-12T02:34:26;101401.91;;;17.29;100.00
54308;BME280;40208;39.778;2.710;2023-03-12T02:37:11;101387.06;;;17.23;100.00
54308;BME280;40208;39.778;2.710;2023-03-12T02:40:04;101459.19;;;17.56;100.00
54308;BME280;40208;39.778;2.710;2023-03-12T02:42:54;101453.06;;;17.54;100.00
54308;BME280;40208;39.778;2.710;2023-03-12T02:45:39;101462.94;;;17.54;100.00
54308;BME280;40208;39.778;2.710;2023-03-12T02:48:24;101423.28;;;17.16;100.00
54308;BME280;40208;39.778;2.710;2023-03-12T02:51:09;101467.16;;;17.44;100.00
54308;BME280;40208;39.778;2.710;2023-03-12T02:53:54;101409.88;;;17.16;100.00
54308;BME280;40208;39.778;2.710;2023-03-12T02:56:40;101462.69;;;17.30;100.00
54308;BME280;40208;39.778;2.710;2023-03-12T02:59:25;101413.34;;;17.04;100.00
54308;BME280;40208;39.778;2.710;2023-03-12T03:02:10;101402.59;;;17.04;100.00
54308;BME280;40208;39.778;2.710;2023-03-12T03:04:56;101456.06;;;17.21;100.00
54308;BME280;40208;39.778;2.710;2023-03-12T03:07:41;101470.13;;;17.25;100.00
54308;BME280;40208;39.778;2.710;2023-03-12T03:10:26;101464.09;;;17.21;100.00
54308;BME280;40208;39.778;2.710;2023-03-12T03:13:11;101464.09;;;17.21;100.00
54308;BME280;40208;39.778;2.710;2023-03-12T03:15:56;101463.03;;;17.24;100.00
54308;BME280;40208;39.778;2.710;2023-03-12T03:18:43;101475.03;;;17.18;100.00
54308;BME280;40208;39.778;2.710;2023-03-12T03:21:28;101469.72;;;17.02;100.00
54308;BME280;40208;39.778;2.710;2023-03-12T03:24:13;101447.78;;;16.81;100.00
54308;BME280;40208;39.778;2.710;2023-03-12T03:26:58;101481.91;;;17.08;100.00
54308;BME280;40208;39.778;2.710;2023-03-12T03:29:44;101475.16;;;16.86;100.00
54308;BME280;40208;39.778;2.710;2023-03-12T03:32:30;101443.69;;;16.74;100.00
54308;BME280;40208;39.778;2.710;2023-03-12T03:35:15;101469.66;;;16.73;100.00
54308;BME280;40208;39.778;2.710;2023-03-12T03:38:01;101496.34;;;16.91;100.00
54308;BME280;40208;39.778;2.710;2023-03-12T03:40:46;101427.22;;;16.51;100.00
54308;BME280;40208;39.778;2.710;2023-03-12T03:43:31;101498.50;;;16.84;100.00
54308;BME280;40208;39.778;2.710;2023-03-12T03:46:16;101507.34;;;16.86;100.00
54308;BME280;40208;39.778;2.710;2023-03-12T03:49:01;101442.66;;;16.46;100.00
54308;BME280;40208;39.778;2.710;2023-03-12T03:51:46;101470.47;;;16.60;100.00
54308;BME280;40208;39.778;2.710;2023-03-12T03:54:31;101462.63;;;16.57;100.00
54308;BME280;40208;39.778;2.710;2023-03-12T03:57:17;101379.97;;;16.04;100.00
54308;BME280;40208;39.778;2.710;2023-03-12T04:00:02;101505.34;;;16.74;100.00
54308;BME280;40208;39.778;2.710;2023-03-12T04:02:52;101511.50;;;16.76;100.00
54308;BME280;40208;39.778;2.710;2023-03-12T04:05:39;101508.81;;;16.76;100.00
54308;BME280;40208;39.778;2.710;2023-03-12T04:08:28;101517.78;;;16.75;100.00
54308;BME280;40208;39.778;2.710;2023-03-12T04:11:16;101521.72;;;16.69;100.00
54308;BME280;40208;39.778;2.710;2023-03-12T04:14:01;101511.44;;;16.62;100.00
54308;BME280;40208;39.778;2.710;2023-03-12T04:16:46;101529.69;;;16.71;100.00
54308;BME280;40208;39.778;2.710;2023-03-12T04:19:31;101369.31;;;15.57;100.00
54308;BME280;40208;39.778;2.710;2023-03-12T04:22:16;101542.06;;;16.58;100.00
54308;BME280;40208;39.778;2.710;2023-03-12T04:25:01;101501.75;;;16.29;100.00
54308;BME280;40208;39.778;2.710;2023-03-12T04:27:46;101550.94;;;16.58;100.00
54308;BME280;40208;39.778;2.710;2023-03-12T04:30:32;101538.72;;;16.38;100.00
54308;BME280;40208;39.778;2.710;2023-03-12T04:33:17;101506.94;;;16.16;100.00
54308;BME280;40208;39.778;2.710;2023-03-12T04:36:03;101559.19;;;16.39;100.00
54308;BME280;40208;39.778;2.710;2023-03-12T04:38:48;101556.50;;;16.39;100.00
54308;BME280;40208;39.778;2.710;2023-03-12T04:41:34;101517.75;;;16.15;100.00
54308;BME280;40208;39.778;2.710;2023-03-12T04:44:19;101572.94;;;16.33;100.00
54308;BME280;40208;39.778;2.710;2023-03-12T04:47:04;101569.31;;;16.34;100.00
54308;BME280;40208;39.778;2.710;2023-03-12T04:49:49;101581.13;;;16.30;100.00
54308;BME280;40208;39.778;2.710;2023-03-12T04:52:34;101524.72;;;15.85;100.00
54308;BME280;40208;39.778;2.710;2023-03-12T04:55:19;101581.44;;;16.25;100.00
54308;BME280;40208;39.778;2.710;2023-03-12T04:58:04;101581.13;;;16.30;100.00
54308;BME280;40208;39.778;2.710;2023-03-12T05:00:49;101538.22;;;16.00;100.00
54308;BME280;40208;39.778;2.710;2023-03-12T05:03:34;101592.75;;;16.30;100.00
54308;BME280;40208;39.778;2.710;2023-03-12T05:06:20;101590.13;;;16.13;100.00
54308;BME280;40208;39.778;2.710;2023-03-12T05:09:05;101547.00;;;15.86;100.00
54308;BME280;40208;39.778;2.710;2023-03-12T05:11:50;101525.91;;;15.80;100.00
54308;BME280;40208;39.778;2.710;2023-03-12T05:14:35;101603.00;;;16.22;100.00
54308;BME280;40208;39.778;2.710;2023-03-12T05:17:23;101614.81;;;16.18;100.00
54308;BME280;40208;39.778;2.710;2023-03-12T05:20:08;101606.34;;;15.94;100.00
54308;BME280;40208;39.778;2.710;2023-03-12T05:22:54;101607.97;;;15.81;100.00
54308;BME280;40208;39.778;2.710;2023-03-12T05:25:39;101612.19;;;15.85;100.00
54308;BME280;40208;39.778;2.710;2023-03-12T05:28:27;101585.00;;;15.59;100.00
54308;BME280;40208;39.778;2.710;2023-03-12T05:31:13;101621.91;;;15.70;100.00
54308;BME280;40208;39.778;2.710;2023-03-12T05:33:59;101496.69;;;14.93;100.00
54308;BME280;40208;39.778;2.710;2023-03-12T05:36:44;101544.50;;;15.32;100.00
54308;BME280;40208;39.778;2.710;2023-03-12T05:39:29;101592.00;;;15.62;100.00
54308;BME280;40208;39.778;2.710;2023-03-12T05:42:14;101610.03;;;15.92;100.00
54308;BME280;40208;39.778;2.710;2023-03-12T05:44:59;101614.09;;;15.83;100.00
54308;BME280;40208;39.778;2.710;2023-03-12T05:47:44;101624.28;;;15.92;100.00
54308;BME280;40208;39.778;2.710;2023-03-12T05:50:29;101637.78;;;15.90;100.00
54308;BME280;40208;39.778;2.710;2023-03-12T05:53:14;101610.97;;;15.75;100.00
54308;BME280;40208;39.778;2.710;2023-03-12T05:56:09;101620.59;;;15.95;100.00
54308;BME280;40208;39.778;2.710;2023-03-12T05:58:54;101632.00;;;15.98;100.00
54308;BME280;40208;39.778;2.710;2023-03-12T06:01:39;101635.63;;;15.97;100.00
54308;BME280;40208;39.778;2.710;2023-03-12T06:04:25;101638.31;;;15.97;100.00
54308;BME280;40208;39.778;2.710;2023-03-12T06:07:10;101640.22;;;15.95;100.00
54308;BME280;40208;39.778;2.710;2023-03-12T06:09:55;101629.75;;;15.90;100.00
54308;BME280;40208;39.778;2.710;2023-03-12T06:12:40;101645.19;;;15.85;100.00
54308;BME280;40208;39.778;2.710;2023-03-12T06:15:24;101636.03;;;15.89;100.00
54308;BME280;40208;39.778;2.710;2023-03-12T06:18:10;101635.63;;;15.97;100.00
54308;BME280;40208;39.778;2.710;2023-03-12T06:20:55;101568.84;;;15.61;100.00
54308;BME280;40208;39.778;2.710;2023-03-12T06:23:41;101578.50;;;15.63;100.00
54308;BME280;40208;39.778;2.710;2023-03-12T06:26:27;101633.59;;;15.85;100.00
54308;BME280;40208;39.778;2.710;2023-03-12T06:29:12;101622.75;;;15.71;100.00
54308;BME280;40208;39.778;2.710;2023-03-12T06:31:57;101596.72;;;15.74;100.00
54308;BME280;40208;39.778;2.710;2023-03-12T06:34:42;101650.31;;;15.90;100.00
54308;BME280;40208;39.778;2.710;2023-03-12T06:37:28;101555.44;;;15.27;100.00
54308;BME280;40208;39.778;2.710;2023-03-12T06:40:13;101643.56;;;15.83;100.00
54308;BME280;40208;39.778;2.710;2023-03-12T06:42:58;101649.53;;;15.88;100.00
54308;BME280;40208;39.778;2.710;2023-03-12T06:45:43;101656.16;;;15.81;100.00
54308;BME280;40208;39.778;2.710;2023-03-12T06:48:29;101638.09;;;15.67;100.00
54308;BME280;40208;39.778;2.710;2023-03-12T06:51:17;101613.22;;;15.65;100.00
54308;BME280;40208;39.778;2.710;2023-03-12T06:54:01;101602.31;;;15.52;100.00
54308;BME280;40208;39.778;2.710;2023-03-12T06:56:46;101663.69;;;15.90;100.00
54308;BME280;40208;39.778;2.710;2023-03-12T06:59:31;101604.75;;;15.57;100.00
54308;BME280;40208;39.778;2.710;2023-03-12T07:02:16;101640.22;;;15.78;100.00
54308;BME280;40208;39.778;2.710;2023-03-12T07:05:01;101611.63;;;15.45;100.00
54308;BME280;40208;39.778;2.710;2023-03-12T07:07:45;101676.03;;;15.93;100.00
54308;BME280;40208;39.778;2.710;2023-03-12T07:10:30;101684.94;;;15.93;100.00
54308;BME280;40208;39.778;2.710;2023-03-12T07:13:15;101684.88;;;15.95;100.00
54308;BME280;40208;39.778;2.710;2023-03-12T07:16:00;101618.81;;;15.60;100.00
54308;BME280;40208;39.778;2.710;2023-03-12T07:18:45;101693.34;;;16.03;100.00
54308;BME280;40208;39.778;2.710;2023-03-12T07:21:30;101654.50;;;15.78;100.00
54308;BME280;40208;39.778;2.710;2023-03-12T07:24:15;101698.44;;;16.07;100.00
54308;BME280;40208;39.778;2.710;2023-03-12T07:26:59;101624.19;;;15.60;100.00
54308;BME280;40208;39.778;2.710;2023-03-12T07:29:44;101695.94;;;16.04;100.00
54308;BME280;40208;39.778;2.710;2023-03-12T07:32:29;101700.50;;;16.02;100.00
54308;BME280;40208;39.778;2.710;2023-03-12T07:35:16;101709.53;;;16.17;100.00
54308;BME280;40208;39.778;2.710;2023-03-12T07:38:02;101700.94;;;16.10;100.00
54308;BME280;40208;39.778;2.710;2023-03-12T07:40:51;101719.94;;;16.23;100.00
54308;BME280;40208;39.778;2.710;2023-03-12T07:43:36;101693.78;;;16.11;100.00
54308;BME280;40208;39.778;2.710;2023-03-12T07:46:21;101716.03;;;16.29;100.00
54308;BME280;40208;39.778;2.710;2023-03-12T07:49:06;101714.94;;;16.33;100.00
54308;BME280;40208;39.778;2.710;2023-03-12T07:51:51;101724.00;;;16.30;100.00
54308;BME280;40208;39.778;2.710;2023-03-12T07:54:37;101611.34;;;15.67;100.00
54308;BME280;40208;39.778;2.710;2023-03-12T07:57:21;101728.50;;;16.46;100.00
54308;BME280;40208;39.778;2.710;2023-03-12T08:00:07;101696.50;;;16.27;100.00
54308;BME280;40208;39.778;2.710;2023-03-12T08:02:53;101712.94;;;16.37;100.00
54308;BME280;40208;39.778;2.710;2023-03-12T08:05:38;101694.53;;;16.30;100.00
54308;BME280;40208;39.778;2.710;2023-03-12T08:08:23;101688.88;;;16.19;100.00
54308;BME280;40208;39.778;2.710;2023-03-12T08:11:08;101653.41;;;15.98;100.00
54308;BME280;40208;39.778;2.710;2023-03-12T08:13:53;101734.47;;;16.51;100.00
54308;BME280;40208;39.778;2.710;2023-03-12T08:16:38;101684.69;;;16.31;100.00
54308;BME280;40208;39.778;2.710;2023-03-12T08:19:24;101710.63;;;16.46;100.00
54308;BME280;40208;39.778;2.710;2023-03-12T08:22:09;101747.13;;;16.65;100.00
54308;BME280;40208;39.778;2.710;2023-03-12T08:24:54;101754.44;;;16.79;100.00
54308;BME280;40208;39.778;2.710;2023-03-12T08:27:39;101714.34;;;16.60;100.00
54308;BME280;40208;39.778;2.710;2023-03-12T08:30:24;101745.50;;;16.78;100.00
54308;BME280;40208;39.778;2.710;2023-03-12T08:33:08;101701.75;;;16.62;100.00
54308;BME280;40208;39.778;2.710;2023-03-12T08:35:53;101737.59;;;16.92;100.00
54308;BME280;40208;39.778;2.710;2023-03-12T08:38:38;101707.97;;;16.78;100.00
54308;BME280;40208;39.778;2.710;2023-03-12T08:41:23;101658.84;;;16.46;100.00
54308;BME280;40208;39.778;2.710;2023-03-12T08:44:07;101695.50;;;16.77;100.00
54308;BME280;40208;39.778;2.710;2023-03-12T08:46:52;101746.63;;;17.22;100.00
54308;BME280;40208;39.778;2.710;2023-03-12T08:49:37;101747.94;;;17.30;100.00
54308;BME280;40208;39.778;2.710;2023-03-12T08:52:22;101674.69;;;16.98;100.00
54308;BME280;40208;39.778;2.710;2023-03-12T08:55:08;101738.91;;;17.47;100.00
54308;BME280;40208;39.778;2.710;2023-03-12T08:57:54;101700.41;;;17.32;100.00
54308;BME280;40208;39.778;2.710;2023-03-12T09:00:39;101699.44;;;17.33;100.00
54308;BME280;40208;39.778;2.710;2023-03-12T09:03:25;101632.09;;;17.08;100.00
54308;BME280;40208;39.778;2.710;2023-03-12T09:06:11;101743.13;;;17.82;100.00
54308;BME280;40208;39.778;2.710;2023-03-12T09:08:59;101739.63;;;17.95;100.00
54308;BME280;40208;39.778;2.710;2023-03-12T09:11:48;101736.38;;;18.05;100.00
54308;BME280;40208;39.778;2.710;2023-03-12T09:14:33;101735.81;;;18.14;100.00
54308;BME280;40208;39.778;2.710;2023-03-12T09:17:18;101734.38;;;18.22;100.00
54308;BME280;40208;39.778;2.710;2023-03-12T09:20:04;101722.88;;;18.20;100.00
54308;BME280;40208;39.778;2.710;2023-03-12T09:22:51;101742.03;;;18.43;100.00
54308;BME280;40208;39.778;2.710;2023-03-12T09:25:36;101688.72;;;18.22;100.00
54308;BME280;40208;39.778;2.710;2023-03-12T09:28:21;101693.19;;;18.36;100.00
54308;BME280;40208;39.778;2.710;2023-03-12T09:31:06;101717.47;;;18.63;100.00
54308;BME280;40208;39.778;2.710;2023-03-12T09:33:51;101716.19;;;18.69;100.00
54308;BME280;40208;39.778;2.710;2023-03-12T09:36:36;101737.13;;;18.93;100.00
54308;BME280;40208;39.778;2.710;2023-03-12T09:39:21;101687.28;;;18.87;100.00
54308;BME280;40208;39.778;2.710;2023-03-12T09:42:15;101725.94;;;19.26;100.00
54308;BME280;40208;39.778;2.710;2023-03-12T09:45:06;101731.28;;;19.40;100.00
54308;BME280;40208;39.778;2.710;2023-03-12T09:47:56;101737.78;;;19.51;100.00
54308;BME280;40208;39.778;2.710;2023-03-12T09:50:45;101722.34;;;19.53;100.00
54308;BME280;40208;39.778;2.710;2023-03-12T09:53:43;101737.53;;;19.81;100.00
54308;BME280;40208;39.778;2.710;2023-03-12T09:56:32;101722.88;;;19.98;100.00
54308;BME280;40208;39.778;2.710;2023-03-12T09:59:17;101719.13;;;20.13;100.00
54308;BME280;40208;39.778;2.710;2023-03-12T10:02:12;101676.66;;;20.04;100.00
54308;BME280;40208;39.778;2.710;2023-03-12T10:05:08;101726.88;;;20.43;100.00
54308;BME280;40208;39.778;2.710;2023-03-12T10:08:16;101720.16;;;20.49;100.00
54308;BME280;40208;39.778;2.710;2023-03-12T10:14:25;101711.75;;;20.66;100.00
54308;BME280;40208;39.778;2.710;2023-03-12T10:20:12;101713.56;;;20.79;100.00
54308;BME280;40208;39.778;2.710;2023-03-12T10:29:27;101718.75;;;21.06;100.00
54308;BME280;40208;39.778;2.710;2023-03-12T10:34:57;101580.19;;;20.33;100.00
54308;BME280;40208;39.778;2.710;2023-03-12T10:37:53;101701.44;;;21.08;100.00
54308;BME280;40208;39.778;2.710;2023-03-12T10:40:40;101679.59;;;21.00;100.00
54308;BME280;40208;39.778;2.710;2023-03-12T10:43:26;101716.69;;;21.33;100.00
54308;BME280;40208;39.778;2.710;2023-03-12T10:52:19;101732.72;;;21.24;100.00
54308;BME280;40208;39.778;2.710;2023-03-12T10:55:26;101727.06;;;21.27;100.00
54308;BME280;40208;39.778;2.710;2023-03-12T10:58:23;101726.59;;;21.33;100.00
54308;BME280;40208;39.778;2.710;2023-03-12T11:01:15;101730.13;;;21.46;100.00
54308;BME280;40208;39.778;2.710;2023-03-12T11:04:13;101719.81;;;21.51;100.00
54308;BME280;40208;39.778;2.710;2023-03-12T11:07:09;101713.47;;;21.52;100.00
54308;BME280;40208;39.778;2.710;2023-03-12T11:15:41;101722.09;;;21.69;100.00
54308;BME280;40208;39.778;2.710;2023-03-12T11:18:37;101721.22;;;21.68;100.00
54308;BME280;40208;39.778;2.710;2023-03-12T11:21:22;101728.72;;;21.65;100.00
54308;BME280;40208;39.778;2.710;2023-03-12T11:24:14;101654.03;;;21.28;100.00
54308;BME280;40208;39.778;2.710;2023-03-12T11:30:17;101693.59;;;21.65;100.00
54308;BME280;40208;39.778;2.710;2023-03-12T11:33:07;101726.06;;;21.87;100.00
54308;BME280;40208;39.778;2.710;2023-03-12T11:36:12;101722.41;;;21.88;100.00
54308;BME280;40208;39.778;2.710;2023-03-12T11:39:02;101718.22;;;21.95;100.00
54308;BME280;40208;39.778;2.710;2023-03-12T11:48:11;101711.59;;;21.99;100.00
54308;BME280;40208;39.778;2.710;2023-03-12T11:51:25;101702.75;;;21.97;100.00
54308;BME280;40208;39.778;2.710;2023-03-12T12:00:51;101707.19;;;22.10;100.00
54308;BME280;40208;39.778;2.710;2023-03-12T12:06:52;101679.66;;;22.05;100.00
54308;BME280;40208;39.778;2.710;2023-03-12T12:15:53;101689.75;;;22.02;100.00
54308;BME280;40208;39.778;2.710;2023-03-12T12:25:16;101689.75;;;22.02;100.00
54308;BME280;40208;39.778;2.710;2023-03-12T12:28:32;101688.00;;;22.13;100.00
54308;BME280;40208;39.778;2.710;2023-03-12T12:40:33;101688.88;;;22.13;100.00
54308;BME280;40208;39.778;2.710;2023-03-12T12:43:40;101688.00;;;22.13;99.78
54308;BME280;40208;39.778;2.710;2023-03-12T12:46:33;101688.13;;;22.11;100.00
54308;BME280;40208;39.778;2.710;2023-03-12T12:49:30;101697.34;;;22.20;98.75
54308;BME280;40208;39.778;2.710;2023-03-12T12:52:21;101689.97;;;22.11;100.00
54308;BME280;40208;39.778;2.710;2023-03-12T12:55:29;101690.47;;;22.05;100.00
54308;BME280;40208;39.778;2.710;2023-03-12T12:58:23;101695.63;;;21.96;100.00
54308;BME280;40208;39.778;2.710;2023-03-12T13:01:10;101688.47;;;21.84;99.58
54308;BME280;40208;39.778;2.710;2023-03-12T13:04:05;101678.09;;;21.55;100.00
54308;BME280;40208;39.778;2.710;2023-03-12T13:09:46;101687.75;;;21.47;100.00
54308;BME280;40208;39.778;2.710;2023-03-12T13:12:40;101679.91;;;21.44;100.00
54308;BME280;40208;39.778;2.710;2023-03-12T13:18:23;101678.88;;;21.33;100.00
54308;BME280;40208;39.778;2.710;2023-03-12T13:28:01;101628.50;;;20.97;100.00
54308;BME280;40208;39.778;2.710;2023-03-12T13:31:36;101672.78;;;21.18;100.00
54308;BME280;40208;39.778;2.710;2023-03-12T13:37:28;101670.22;;;21.17;100.00
54308;BME280;40208;39.778;2.710;2023-03-12T13:43:29;101662.16;;;21.04;100.00
54308;BME280;40208;39.778;2.710;2023-03-12T13:49:03;101661.66;;;20.99;100.00
54308;BME280;40208;39.778;2.710;2023-03-12T13:54:43;101668.59;;;20.90;100.00
54308;BME280;40208;39.778;2.710;2023-03-12T13:57:30;101669.56;;;20.89;100.00
54308;BME280;40208;39.778;2.710;2023-03-12T14:00:28;101662.56;;;20.87;100.00
54308;BME280;40208;39.778;2.710;2023-03-12T14:03:18;101658.50;;;20.81;100.00
54308;BME280;40208;39.778;2.710;2023-03-12T14:06:13;101666.47;;;20.83;100.00
54308;BME280;40208;39.778;2.710;2023-03-12T14:15:52;101655.50;;;20.97;100.00
54308;BME280;40208;39.778;2.710;2023-03-12T14:18:42;101643.34;;;20.91;100.00
54308;BME280;40208;39.778;2.710;2023-03-12T14:21:32;101620.19;;;20.76;100.00
54308;BME280;40208;39.778;2.710;2023-03-12T14:27:13;101670.31;;;20.67;100.00
54308;BME280;40208;39.778;2.710;2023-03-12T14:32:52;101654.53;;;20.98;100.00
54308;BME280;40208;39.778;2.710;2023-03-12T14:35:44;101629.56;;;20.83;100.00
54308;BME280;40208;39.778;2.710;2023-03-12T14:38:36;101641.75;;;20.89;100.00
54308;BME280;40208;39.778;2.710;2023-03-12T14:41:29;101652.88;;;21.08;100.00
54308;BME280;40208;39.778;2.710;2023-03-12T14:44:27;101640.56;;;21.04;100.00
54308;BME280;40208;39.778;2.710;2023-03-12T14:47:16;101642.97;;;21.20;100.00
54308;BME280;40208;39.778;2.710;2023-03-12T14:50:01;101652.22;;;21.29;100.00
54308;BME280;40208;39.778;2.710;2023-03-12T14:52:47;101649.88;;;21.35;100.00
54308;BME280;40208;39.778;2.710;2023-03-12T14:55:32;101565.44;;;20.87;100.00
54308;BME280;40208;39.778;2.710;2023-03-12T14:58:18;101571.59;;;20.89;100.00
54308;BME280;40208;39.778;2.710;2023-03-12T15:01:05;101647.59;;;21.42;100.00
54308;BME280;40208;39.778;2.710;2023-03-12T15:04:13;101642.94;;;21.44;100.00
54308;BME280;40208;39.778;2.710;2023-03-12T15:07:02;101567.44;;;20.96;100.00
54308;BME280;40208;39.778;2.710;2023-03-12T15:09:49;101585.63;;;21.16;100.00
54308;BME280;40208;39.778;2.710;2023-03-12T15:12:36;101638.53;;;21.54;100.00
54308;BME280;40208;39.778;2.710;2023-03-12T15:15:45;101628.63;;;21.55;100.00
54308;BME280;40208;39.778;2.710;2023-03-12T15:21:20;101620.38;;;21.56;100.00
54308;BME280;40208;39.778;2.710;2023-03-12T15:24:06;101619.28;;;21.59;100.00
54308;BME280;40208;39.778;2.710;2023-03-12T15:26:51;101612.78;;;21.62;100.00
54308;BME280;40208;39.778;2.710;2023-03-12T15:29:39;101621.50;;;21.65;100.00
54308;BME280;40208;39.778;2.710;2023-03-12T15:32:25;101610.22;;;21.60;100.00
54308;BME280;40208;39.778;2.710;2023-03-12T15:35:12;101622.13;;;21.69;100.00
54308;BME280;40208;39.778;2.710;2023-03-12T15:37:57;101598.03;;;21.54;100.00
54308;BME280;40208;39.778;2.710;2023-03-12T15:40:48;101611.69;;;21.64;100.00
54308;BME280;40208;39.778;2.710;2023-03-12T15:43:33;101625.69;;;21.69;100.00
54308;BME280;40208;39.778;2.710;2023-03-12T15:46:18;101626.56;;;21.70;100.00
54308;BME280;40208;39.778;2.710;2023-03-12T15:49:03;101616.22;;;21.64;100.00
54308;BME280;40208;39.778;2.710;2023-03-12T15:52:04;101614.13;;;21.56;100.00
54308;BME280;40208;39.778;2.710;2023-03-12T15:57:53;101610.06;;;21.50;100.00
54308;BME280;40208;39.778;2.710;2023-03-12T16:00:43;101603.28;;;21.45;100.00
54308;BME280;40208;39.778;2.710;2023-03-12T16:03:28;101605.25;;;21.43;100.00
54308;BME280;40208;39.778;2.710;2023-03-12T16:06:16;101610.47;;;21.33;100.00
54308;BME280;40208;39.778;2.710;2023-03-12T16:09:08;101578.78;;;21.12;100.00
54308;BME280;40208;39.778;2.710;2023-03-12T16:11:54;101617.47;;;21.24;100.00
54308;BME280;40208;39.778;2.710;2023-03-12T16:14:39;101606.63;;;21.13;100.00
54308;BME280;40208;39.778;2.710;2023-03-12T16:17:24;101633.28;;;21.17;100.00
54308;BME280;40208;39.778;2.710;2023-03-12T16:20:11;101590.22;;;20.92;100.00